Flight Track Log - Related Links

Times and Time Zones

All times are in EDT time to prevent confusion due to time zone crossing. See the TAM3555 flight status page for this flight to view local times or setup timezone preferences in your user account.

Time Position Orientation Groundspeed Altitude Reporting Facility
EDT Latitude Longitude Course Direction KTS MPH feet Rate Location/Type
Thu 07:50:00 PM -24.2404 -47.4950 229° Southwest  Level Estimated
Thu 07:51:00 PM -24.2713 -47.5347 229° Southwest  Level Estimated
Thu 07:52:00 PM -24.3023 -47.5745 229° Southwest  Level Estimated
Thu 07:53:00 PM -24.3332 -47.6142 229° Southwest  Level Estimated
Thu 07:54:00 PM -24.3641 -47.6540 230° Southwest  Level Estimated
Thu 07:55:00 PM -24.3950 -47.6937 230° Southwest  Level Estimated
Thu 07:56:00 PM -24.4259 -47.7335 230° Southwest  Level Estimated
Thu 07:57:00 PM -24.4568 -47.7734 230° Southwest  Level Estimated
Thu 07:58:00 PM -24.4877 -47.8132 230° Southwest  Level Estimated
Thu 07:59:00 PM -24.5186 -47.8531 230° Southwest  Level Estimated
Thu 08:00:00 PM -24.5494 -47.8929 230° Southwest  Level Estimated
Thu 08:01:00 PM -24.5803 -47.9328 230° Southwest  Level Estimated
Thu 08:02:00 PM -24.6111 -47.9728 230° Southwest  Level Estimated
Thu 08:03:00 PM -24.6420 -48.0127 230° Southwest  Level Estimated
Thu 08:04:00 PM -24.6728 -48.0526 230° Southwest  Level Estimated
Thu 08:05:00 PM -24.7036 -48.0926 230° Southwest  Level Estimated
Thu 08:06:00 PM -24.7344 -48.1326 230° Southwest  Level Estimated
Thu 08:07:00 PM -24.7652 -48.1726 230° Southwest  Level Estimated
Thu 08:08:00 PM -24.7959 -48.2126 230° Southwest  Level Estimated
Thu 08:09:00 PM -24.8267 -48.2527 230° Southwest  Level Estimated
Thu 08:10:00 PM -24.8574 -48.2928 230° Southwest  Level Estimated
Thu 08:11:00 PM -24.8882 -48.3328 230° Southwest  Level Estimated
Thu 08:12:00 PM -24.9189 -48.3730 230° Southwest  Level Estimated
Thu 08:13:00 PM -24.9496 -48.4131 230° Southwest  Level Estimated
Thu 08:14:00 PM -24.9803 -48.4532 230° Southwest  Level Estimated
Thu 08:15:00 PM -25.0110 -48.4934 230° Southwest  Level Estimated
Thu 08:16:00 PM -25.0417 -48.5336 230° Southwest  Level Estimated
Thu 08:17:00 PM -25.0724 -48.5738 230° Southwest  Level Estimated
Thu 08:18:00 PM -25.1031 -48.6140 230° Southwest  Level Estimated
Thu 08:19:00 PM -25.1337 -48.6543 230° Southwest  Level Estimated
Thu 08:20:00 PM -25.1644 -48.6946 230° Southwest  Level Estimated
Thu 08:21:00 PM -25.1950 -48.7349 230° Southwest  Level Estimated
Thu 08:22:00 PM -25.2256 -48.7752 230° Southwest  Level Estimated
Thu 08:23:00 PM -25.2562 -48.8155 230° Southwest  Level Estimated
Thu 08:24:00 PM -25.2868 -48.8559 230° Southwest  Level Estimated
Thu 08:25:00 PM -25.3174 -48.8963 230° Southwest  Level Estimated
Thu 08:26:00 PM -25.3480 -48.9367 230° Southwest  Level Estimated

Login

Don't have an account? Register now (free) for customized features, flight alerts, and more!